sensor_id;sensor_type;location;lat;lon;timestamp;P1;durP1;ratioP1;P2;durP2;ratioP2
1400;SDS011;46518;48.842;8.926;2023-05-10T00:01:55;0.40;;;0.40;;
1400;SDS011;46518;48.842;8.926;2023-05-10T00:04:23;0.40;;;0.40;;
1400;SDS011;46518;48.842;8.926;2023-05-10T00:06:53;1.05;;;0.50;;
1400;SDS011;46518;48.842;8.926;2023-05-10T00:09:25;0.50;;;0.40;;
1400;SDS011;46518;48.842;8.926;2023-05-10T00:11:53;0.50;;;0.40;;
1400;SDS011;46518;48.842;8.926;2023-05-10T00:14:21;0.68;;;0.50;;
1400;SDS011;46518;48.842;8.926;2023-05-10T00:16:49;0.60;;;0.50;;
1400;SDS011;46518;48.842;8.926;2023-05-10T00:19:19;0.60;;;0.60;;
1400;SDS011;46518;48.842;8.926;2023-05-10T00:21:47;1.67;;;0.57;;
1400;SDS011;46518;48.842;8.926;2023-05-10T00:24:15;0.50;;;0.50;;
1400;SDS011;46518;48.842;8.926;2023-05-10T00:26:44;0.60;;;0.60;;
1400;SDS011;46518;48.842;8.926;2023-05-10T00:29:14;0.50;;;0.50;;
1400;SDS011;46518;48.842;8.926;2023-05-10T00:31:42;0.50;;;0.50;;
1400;SDS011;46518;48.842;8.926;2023-05-10T00:34:10;0.98;;;0.57;;
1400;SDS011;46518;48.842;8.926;2023-05-10T00:36:40;1.10;;;0.70;;
1400;SDS011;46518;48.842;8.926;2023-05-10T00:39:08;0.73;;;0.50;;
1400;SDS011;46518;48.842;8.926;2023-05-10T00:41:37;0.60;;;0.60;;
1400;SDS011;46518;48.842;8.926;2023-05-10T00:44:06;0.60;;;0.60;;
1400;SDS011;46518;48.842;8.926;2023-05-10T00:46:34;0.80;;;0.80;;
1400;SDS011;46518;48.842;8.926;2023-05-10T00:49:03;1.05;;;0.77;;
1400;SDS011;46518;48.842;8.926;2023-05-10T00:51:31;0.65;;;0.65;;
1400;SDS011;46518;48.842;8.926;2023-05-10T00:54:01;3.13;;;1.30;;
1400;SDS011;46518;48.842;8.926;2023-05-10T00:56:30;1.05;;;1.05;;
1400;SDS011;46518;48.842;8.926;2023-05-10T00:58:59;0.88;;;0.88;;
1400;SDS011;46518;48.842;8.926;2023-05-10T01:01:27;1.65;;;1.23;;
1400;SDS011;46518;48.842;8.926;2023-05-10T01:03:56;1.30;;;1.08;;
1400;SDS011;46518;48.842;8.926;2023-05-10T01:06:25;1.50;;;1.40;;
1400;SDS011;46518;48.842;8.926;2023-05-10T01:08:54;1.00;;;0.90;;
1400;SDS011;46518;48.842;8.926;2023-05-10T01:11:24;1.15;;;1.08;;
1400;SDS011;46518;48.842;8.926;2023-05-10T01:13:54;0.77;;;0.77;;
1400;SDS011;46518;48.842;8.926;2023-05-10T01:16:24;0.80;;;0.80;;
1400;SDS011;46518;48.842;8.926;2023-05-10T01:18:54;1.55;;;1.10;;
1400;SDS011;46518;48.842;8.926;2023-05-10T01:21:23;1.33;;;1.23;;
1400;SDS011;46518;48.842;8.926;2023-05-10T01:27:13;1.10;;;1.00;;
1400;SDS011;46518;48.842;8.926;2023-05-10T01:32:52;0.70;;;0.70;;
1400;SDS011;46518;48.842;8.926;2023-05-10T01:35:31;1.38;;;1.27;;
1400;SDS011;46518;48.842;8.926;2023-05-10T01:38:07;1.50;;;1.40;;
1400;SDS011;46518;48.842;8.926;2023-05-10T01:40:42;1.67;;;0.90;;
1400;SDS011;46518;48.842;8.926;2023-05-10T01:43:21;1.00;;;0.90;;
1400;SDS011;46518;48.842;8.926;2023-05-10T01:45:56;1.20;;;1.10;;
1400;SDS011;46518;48.842;8.926;2023-05-10T01:48:38;1.20;;;1.10;;
1400;SDS011;46518;48.842;8.926;2023-05-10T01:51:14;1.50;;;1.40;;
1400;SDS011;46518;48.842;8.926;2023-05-10T01:53:46;1.70;;;1.13;;
1400;SDS011;46518;48.842;8.926;2023-05-10T01:56:16;1.33;;;1.25;;
1400;SDS011;46518;48.842;8.926;2023-05-10T01:58:51;1.35;;;1.25;;
1400;SDS011;46518;48.842;8.926;2023-05-10T02:01:21;2.35;;;1.60;;
1400;SDS011;46518;48.842;8.926;2023-05-10T02:03:54;1.40;;;1.30;;
1400;SDS011;46518;48.842;8.926;2023-05-10T02:06:25;1.38;;;1.27;;
1400;SDS011;46518;48.842;8.926;2023-05-10T02:08:54;2.22;;;2.03;;
1400;SDS011;46518;48.842;8.926;2023-05-10T02:11:24;2.03;;;1.88;;
1400;SDS011;46518;48.842;8.926;2023-05-10T02:13:55;3.30;;;1.40;;
1400;SDS011;46518;48.842;8.926;2023-05-10T02:16:28;1.80;;;1.70;;
1400;SDS011;46518;48.842;8.926;2023-05-10T02:19:00;2.05;;;1.85;;
1400;SDS011;46518;48.842;8.926;2023-05-10T02:21:29;2.03;;;1.92;;
1400;SDS011;46518;48.842;8.926;2023-05-10T02:23:59;2.30;;;2.20;;
1400;SDS011;46518;48.842;8.926;2023-05-10T02:26:31;1.85;;;1.75;;
1400;SDS011;46518;48.842;8.926;2023-05-10T02:29:01;2.10;;;2.00;;
1400;SDS011;46518;48.842;8.926;2023-05-10T02:31:31;2.28;;;2.17;;
1400;SDS011;46518;48.842;8.926;2023-05-10T02:34:02;2.47;;;2.28;;
1400;SDS011;46518;48.842;8.926;2023-05-10T02:36:31;3.67;;;2.40;;
1400;SDS011;46518;48.842;8.926;2023-05-10T02:39:00;3.00;;;2.80;;
1400;SDS011;46518;48.842;8.926;2023-05-10T02:41:30;3.70;;;3.40;;
1400;SDS011;46518;48.842;8.926;2023-05-10T02:44:01;3.15;;;2.85;;
1400;SDS011;46518;48.842;8.926;2023-05-10T02:46:30;3.00;;;2.80;;
1400;SDS011;46518;48.842;8.926;2023-05-10T02:48:59;2.83;;;2.63;;
1400;SDS011;46518;48.842;8.926;2023-05-10T02:51:30;2.40;;;2.30;;
1400;SDS011;46518;48.842;8.926;2023-05-10T02:54:01;2.67;;;2.47;;
1400;SDS011;46518;48.842;8.926;2023-05-10T02:56:47;3.10;;;2.90;;
1400;SDS011;46518;48.842;8.926;2023-05-10T02:59:18;3.13;;;2.60;;
1400;SDS011;46518;48.842;8.926;2023-05-10T03:01:46;3.78;;;3.47;;
1400;SDS011;46518;48.842;8.926;2023-05-10T03:04:15;2.95;;;2.75;;
1400;SDS011;46518;48.842;8.926;2023-05-10T03:06:44;2.95;;;2.70;;
1400;SDS011;46518;48.842;8.926;2023-05-10T03:09:13;3.10;;;2.90;;
1400;SDS011;46518;48.842;8.926;2023-05-10T03:11:47;3.55;;;3.10;;
1400;SDS011;46518;48.842;8.926;2023-05-10T03:14:28;3.47;;;3.28;;
1400;SDS011;46518;48.842;8.926;2023-05-10T03:17:11;3.45;;;3.25;;
1400;SDS011;46518;48.842;8.926;2023-05-10T03:19:47;3.55;;;3.35;;
1400;SDS011;46518;48.842;8.926;2023-05-10T03:22:24;3.40;;;3.15;;
1400;SDS011;46518;48.842;8.926;2023-05-10T03:24:55;3.08;;;2.78;;
1400;SDS011;46518;48.842;8.926;2023-05-10T03:27:27;3.40;;;3.05;;
1400;SDS011;46518;48.842;8.926;2023-05-10T03:29:59;3.55;;;3.25;;
1400;SDS011;46518;48.842;8.926;2023-05-10T03:32:31;3.30;;;3.05;;
1400;SDS011;46518;48.842;8.926;2023-05-10T03:35:05;3.13;;;2.83;;
1400;SDS011;46518;48.842;8.926;2023-05-10T03:37:36;2.90;;;2.70;;
1400;SDS011;46518;48.842;8.926;2023-05-10T03:40:06;3.70;;;3.38;;
1400;SDS011;46518;48.842;8.926;2023-05-10T03:42:38;2.67;;;2.47;;
1400;SDS011;46518;48.842;8.926;2023-05-10T03:45:06;2.72;;;2.53;;
1400;SDS011;46518;48.842;8.926;2023-05-10T03:47:36;3.10;;;2.90;;
1400;SDS011;46518;48.842;8.926;2023-05-10T03:50:05;2.72;;;2.53;;
1400;SDS011;46518;48.842;8.926;2023-05-10T03:52:36;3.22;;;3.03;;
1400;SDS011;46518;48.842;8.926;2023-05-10T03:55:05;3.03;;;2.72;;
1400;SDS011;46518;48.842;8.926;2023-05-10T03:57:34;3.80;;;3.50;;
1400;SDS011;46518;48.842;8.926;2023-05-10T04:00:03;3.50;;;3.30;;
1400;SDS011;46518;48.842;8.926;2023-05-10T04:02:39;4.20;;;3.78;;
1400;SDS011;46518;48.842;8.926;2023-05-10T04:05:14;3.72;;;3.42;;
1400;SDS011;46518;48.842;8.926;2023-05-10T04:07:44;3.70;;;3.40;;
1400;SDS011;46518;48.842;8.926;2023-05-10T04:10:14;3.00;;;2.80;;
1400;SDS011;46518;48.842;8.926;2023-05-10T04:12:43;3.05;;;2.85;;
1400;SDS011;46518;48.842;8.926;2023-05-10T04:15:11;3.10;;;2.80;;
1400;SDS011;46518;48.842;8.926;2023-05-10T04:17:40;3.90;;;2.70;;
1400;SDS011;46518;48.842;8.926;2023-05-10T04:20:08;2.97;;;2.10;;
1400;SDS011;46518;48.842;8.926;2023-05-10T04:22:37;3.00;;;2.80;;
1400;SDS011;46518;48.842;8.926;2023-05-10T04:25:07;6.20;;;2.90;;
1400;SDS011;46518;48.842;8.926;2023-05-10T04:27:36;2.47;;;2.33;;
1400;SDS011;46518;48.842;8.926;2023-05-10T04:30:05;2.60;;;2.40;;
1400;SDS011;46518;48.842;8.926;2023-05-10T04:32:34;2.20;;;2.03;;
1400;SDS011;46518;48.842;8.926;2023-05-10T04:35:03;2.90;;;2.70;;
1400;SDS011;46518;48.842;8.926;2023-05-10T04:37:31;2.30;;;1.95;;
1400;SDS011;46518;48.842;8.926;2023-05-10T04:40:00;3.60;;;3.30;;
1400;SDS011;46518;48.842;8.926;2023-05-10T04:42:31;2.90;;;2.70;;
1400;SDS011;46518;48.842;8.926;2023-05-10T04:44:59;4.80;;;2.80;;
1400;SDS011;46518;48.842;8.926;2023-05-10T04:47:27;3.35;;;3.15;;
1400;SDS011;46518;48.842;8.926;2023-05-10T04:49:55;2.67;;;2.47;;
1400;SDS011;46518;48.842;8.926;2023-05-10T04:52:23;2.92;;;2.65;;
1400;SDS011;46518;48.842;8.926;2023-05-10T04:54:52;2.28;;;2.08;;
1400;SDS011;46518;48.842;8.926;2023-05-10T04:57:21;3.03;;;2.80;;
1400;SDS011;46518;48.842;8.926;2023-05-10T04:59:53;5.72;;;3.17;;
1400;SDS011;46518;48.842;8.926;2023-05-10T05:02:21;3.00;;;2.80;;
1400;SDS011;46518;48.842;8.926;2023-05-10T05:04:50;3.58;;;3.28;;
1400;SDS011;46518;48.842;8.926;2023-05-10T05:07:18;3.20;;;3.00;;
1400;SDS011;46518;48.842;8.926;2023-05-10T05:09:46;3.03;;;2.83;;
1400;SDS011;46518;48.842;8.926;2023-05-10T05:12:14;3.60;;;3.13;;
1400;SDS011;46518;48.842;8.926;2023-05-10T05:14:42;3.25;;;3.05;;
1400;SDS011;46518;48.842;8.926;2023-05-10T05:17:12;2.85;;;2.65;;
1400;SDS011;46518;48.842;8.926;2023-05-10T05:19:40;3.10;;;2.88;;
1400;SDS011;46518;48.842;8.926;2023-05-10T05:22:08;3.70;;;3.40;;
1400;SDS011;46518;48.842;8.926;2023-05-10T05:24:37;3.40;;;3.10;;
1400;SDS011;46518;48.842;8.926;2023-05-10T16:34:04;0.75;;;0.75;;
1400;SDS011;46518;48.842;8.926;2023-05-10T16:36:33;1.00;;;0.90;;
1400;SDS011;46518;48.842;8.926;2023-05-10T16:39:03;8.52;;;1.33;;
1400;SDS011;46518;48.842;8.926;2023-05-10T16:41:33;1.80;;;1.17;;
1400;SDS011;46518;48.842;8.926;2023-05-10T16:44:02;2.33;;;0.90;;
1400;SDS011;46518;48.842;8.926;2023-05-10T16:46:31;0.90;;;0.90;;
1400;SDS011;46518;48.842;8.926;2023-05-10T16:49:00;2.33;;;1.30;;
1400;SDS011;46518;48.842;8.926;2023-05-10T16:51:30;1.15;;;1.05;;
1400;SDS011;46518;48.842;8.926;2023-05-10T16:53:58;1.30;;;1.20;;
1400;SDS011;46518;48.842;8.926;2023-05-10T16:56:40;1.00;;;0.90;;
1400;SDS011;46518;48.842;8.926;2023-05-10T16:59:14;1.25;;;1.15;;
1400;SDS011;46518;48.842;8.926;2023-05-10T17:02:00;1.20;;;1.10;;
1400;SDS011;46518;48.842;8.926;2023-05-10T17:04:33;1.25;;;1.10;;
1400;SDS011;46518;48.842;8.926;2023-05-10T17:07:14;1.15;;;0.90;;
1400;SDS011;46518;48.842;8.926;2023-05-10T17:09:45;1.67;;;0.95;;
1400;SDS011;46518;48.842;8.926;2023-05-10T17:12:13;1.10;;;1.00;;
1400;SDS011;46518;48.842;8.926;2023-05-10T17:14:41;1.25;;;1.10;;
1400;SDS011;46518;48.842;8.926;2023-05-10T17:17:10;1.08;;;0.98;;
1400;SDS011;46518;48.842;8.926;2023-05-10T17:19:38;3.00;;;1.35;;
1400;SDS011;46518;48.842;8.926;2023-05-10T17:22:10;1.20;;;1.10;;
1400;SDS011;46518;48.842;8.926;2023-05-10T17:24:40;1.02;;;0.93;;
1400;SDS011;46518;48.842;8.926;2023-05-10T17:27:08;0.80;;;0.80;;
1400;SDS011;46518;48.842;8.926;2023-05-10T17:29:36;1.20;;;1.10;;
1400;SDS011;46518;48.842;8.926;2023-05-10T17:32:04;1.45;;;1.10;;
1400;SDS011;46518;48.842;8.926;2023-05-10T17:34:34;1.02;;;1.02;;
1400;SDS011;46518;48.842;8.926;2023-05-10T17:37:02;1.20;;;1.10;;
1400;SDS011;46518;48.842;8.926;2023-05-10T17:39:31;1.60;;;1.15;;
1400;SDS011;46518;48.842;8.926;2023-05-10T17:42:02;2.40;;;1.00;;
1400;SDS011;46518;48.842;8.926;2023-05-10T17:44:30;0.98;;;0.80;;
1400;SDS011;46518;48.842;8.926;2023-05-10T17:47:00;1.60;;;1.23;;
1400;SDS011;46518;48.842;8.926;2023-05-10T17:49:30;1.63;;;1.27;;
1400;SDS011;46518;48.842;8.926;2023-05-10T17:52:17;1.85;;;1.08;;
1400;SDS011;46518;48.842;8.926;2023-05-10T17:54:49;2.03;;;1.20;;
1400;SDS011;46518;48.842;8.926;2023-05-10T17:57:22;1.30;;;1.20;;
1400;SDS011;46518;48.842;8.926;2023-05-10T17:59:56;1.40;;;1.30;;
1400;SDS011;46518;48.842;8.926;2023-05-10T18:02:29;1.40;;;1.30;;
1400;SDS011;46518;48.842;8.926;2023-05-10T18:05:00;1.95;;;1.10;;
1400;SDS011;46518;48.842;8.926;2023-05-10T18:07:34;1.90;;;1.10;;
1400;SDS011;46518;48.842;8.926;2023-05-10T18:10:07;1.40;;;1.30;;
1400;SDS011;46518;48.842;8.926;2023-05-10T18:12:41;1.88;;;1.20;;
1400;SDS011;46518;48.842;8.926;2023-05-10T18:15:15;1.10;;;1.00;;
1400;SDS011;46518;48.842;8.926;2023-05-10T18:17:55;0.98;;;0.88;;
1400;SDS011;46518;48.842;8.926;2023-05-10T18:20:33;1.10;;;0.95;;
1400;SDS011;46518;48.842;8.926;2023-05-10T18:23:11;1.75;;;1.10;;
1400;SDS011;46518;48.842;8.926;2023-05-10T18:25:51;0.98;;;0.98;;
1400;SDS011;46518;48.842;8.926;2023-05-10T18:28:32;1.05;;;0.95;;
1400;SDS011;46518;48.842;8.926;2023-05-10T18:31:11;2.58;;;1.02;;
1400;SDS011;46518;48.842;8.926;2023-05-10T18:33:48;1.58;;;1.45;;
1400;SDS011;46518;48.842;8.926;2023-05-10T18:36:17;2.22;;;1.63;;
1400;SDS011;46518;48.842;8.926;2023-05-10T18:38:56;1.50;;;1.40;;
1400;SDS011;46518;48.842;8.926;2023-05-10T18:41:29;1.55;;;1.45;;
1400;SDS011;46518;48.842;8.926;2023-05-10T18:44:09;3.33;;;1.15;;
1400;SDS011;46518;48.842;8.926;2023-05-10T18:46:45;1.38;;;1.20;;
1400;SDS011;46518;48.842;8.926;2023-05-10T18:49:23;6.57;;;2.28;;
1400;SDS011;46518;48.842;8.926;2023-05-10T18:51:58;1.35;;;1.25;;
1400;SDS011;46518;48.842;8.926;2023-05-10T18:54:30;2.65;;;1.90;;
1400;SDS011;46518;48.842;8.926;2023-05-10T18:57:03;1.90;;;1.70;;
1400;SDS011;46518;48.842;8.926;2023-05-10T18:59:42;1.70;;;1.60;;
1400;SDS011;46518;48.842;8.926;2023-05-10T19:02:15;1.65;;;1.55;;
1400;SDS011;46518;48.842;8.926;2023-05-10T19:04:54;1.02;;;1.02;;
1400;SDS011;46518;48.842;8.926;2023-05-10T19:07:26;1.45;;;1.35;;
1400;SDS011;46518;48.842;8.926;2023-05-10T19:09:59;2.33;;;1.42;;
1400;SDS011;46518;48.842;8.926;2023-05-10T19:12:33;1.58;;;1.48;;
1400;SDS011;46518;48.842;8.926;2023-05-10T19:15:10;2.50;;;1.50;;
1400;SDS011;46518;48.842;8.926;2023-05-10T19:17:47;1.30;;;1.20;;
1400;SDS011;46518;48.842;8.926;2023-05-10T19:20:23;1.50;;;1.20;;
1400;SDS011;46518;48.842;8.926;2023-05-10T19:22:59;1.77;;;1.38;;
1400;SDS011;46518;48.842;8.926;2023-05-10T19:25:38;2.13;;;1.73;;
1400;SDS011;46518;48.842;8.926;2023-05-10T19:28:10;2.25;;;1.30;;
1400;SDS011;46518;48.842;8.926;2023-05-10T19:30:45;1.25;;;1.15;;
1400;SDS011;46518;48.842;8.926;2023-05-10T19:33:19;1.60;;;1.50;;
1400;SDS011;46518;48.842;8.926;2023-05-10T19:35:52;2.20;;;2.00;;
1400;SDS011;46518;48.842;8.926;2023-05-10T19:38:27;1.50;;;1.40;;
1400;SDS011;46518;48.842;8.926;2023-05-10T19:41:02;2.00;;;1.80;;
1400;SDS011;46518;48.842;8.926;2023-05-10T19:43:34;1.65;;;1.55;;
1400;SDS011;46518;48.842;8.926;2023-05-10T19:46:10;1.90;;;1.70;;
1400;SDS011;46518;48.842;8.926;2023-05-10T19:48:48;2.30;;;1.70;;
1400;SDS011;46518;48.842;8.926;2023-05-10T19:51:24;1.70;;;1.60;;
1400;SDS011;46518;48.842;8.926;2023-05-10T19:53:59;1.40;;;1.30;;
1400;SDS011;46518;48.842;8.926;2023-05-10T19:56:34;1.42;;;1.30;;
1400;SDS011;46518;48.842;8.926;2023-05-10T19:59:06;1.48;;;1.38;;
1400;SDS011;46518;48.842;8.926;2023-05-10T20:01:45;1.40;;;1.30;;
1400;SDS011;46518;48.842;8.926;2023-05-10T20:04:25;1.80;;;1.45;;
1400;SDS011;46518;48.842;8.926;2023-05-10T20:07:01;3.15;;;2.15;;
1400;SDS011;46518;48.842;8.926;2023-05-10T20:09:38;1.80;;;1.30;;
1400;SDS011;46518;48.842;8.926;2023-05-10T20:12:16;1.83;;;1.50;;
1400;SDS011;46518;48.842;8.926;2023-05-10T20:14:55;2.65;;;1.77;;
1400;SDS011;46518;48.842;8.926;2023-05-10T20:17:37;3.15;;;2.28;;
1400;SDS011;46518;48.842;8.926;2023-05-10T20:20:14;1.48;;;1.38;;
1400;SDS011;46518;48.842;8.926;2023-05-10T20:22:56;2.00;;;1.63;;
1400;SDS011;46518;48.842;8.926;2023-05-10T20:25:34;3.15;;;2.10;;
1400;SDS011;46518;48.842;8.926;2023-05-10T20:28:17;1.95;;;1.75;;
1400;SDS011;46518;48.842;8.926;2023-05-10T20:30:56;2.55;;;1.80;;
1400;SDS011;46518;48.842;8.926;2023-05-10T20:33:37;2.00;;;1.90;;
1400;SDS011;46518;48.842;8.926;2023-05-10T20:36:19;2.35;;;1.40;;
1400;SDS011;46518;48.842;8.926;2023-05-10T20:39:00;2.10;;;1.42;;
1400;SDS011;46518;48.842;8.926;2023-05-10T20:41:40;1.95;;;1.65;;
1400;SDS011;46518;48.842;8.926;2023-05-10T20:44:19;1.55;;;1.25;;
1400;SDS011;46518;48.842;8.926;2023-05-10T20:46:58;1.40;;;1.30;;
1400;SDS011;46518;48.842;8.926;2023-05-10T20:49:38;1.20;;;1.10;;
1400;SDS011;46518;48.842;8.926;2023-05-10T20:52:15;1.10;;;0.90;;
1400;SDS011;46518;48.842;8.926;2023-05-10T20:54:55;1.42;;;0.98;;
1400;SDS011;46518;48.842;8.926;2023-05-10T20:57:34;1.35;;;0.95;;
1400;SDS011;46518;48.842;8.926;2023-05-10T21:00:12;1.92;;;1.48;;
1400;SDS011;46518;48.842;8.926;2023-05-10T21:02:48;1.40;;;1.27;;
1400;SDS011;46518;48.842;8.926;2023-05-10T21:05:29;1.80;;;1.00;;
1400;SDS011;46518;48.842;8.926;2023-05-10T21:08:08;1.25;;;1.05;;
1400;SDS011;46518;48.842;8.926;2023-05-10T21:10:48;1.90;;;1.13;;
1400;SDS011;46518;48.842;8.926;2023-05-10T21:13:28;1.52;;;1.15;;
1400;SDS011;46518;48.842;8.926;2023-05-10T21:16:06;1.23;;;1.13;;
1400;SDS011;46518;48.842;8.926;2023-05-10T21:18:43;3.22;;;1.20;;
1400;SDS011;46518;48.842;8.926;2023-05-10T21:21:13;1.00;;;0.90;;
1400;SDS011;46518;48.842;8.926;2023-05-10T21:23:41;2.25;;;1.60;;
1400;SDS011;46518;48.842;8.926;2023-05-10T21:26:09;1.17;;;1.10;;
1400;SDS011;46518;48.842;8.926;2023-05-10T21:28:37;1.23;;;1.00;;
1400;SDS011;46518;48.842;8.926;2023-05-10T21:31:05;1.08;;;0.98;;
1400;SDS011;46518;48.842;8.926;2023-05-10T21:33:33;1.10;;;1.00;;
1400;SDS011;46518;48.842;8.926;2023-05-10T21:36:02;2.15;;;1.10;;
1400;SDS011;46518;48.842;8.926;2023-05-10T21:38:32;1.27;;;1.17;;
1400;SDS011;46518;48.842;8.926;2023-05-10T21:41:00;2.25;;;1.27;;
1400;SDS011;46518;48.842;8.926;2023-05-10T21:43:28;2.90;;;1.05;;
1400;SDS011;46518;48.842;8.926;2023-05-10T21:45:57;2.58;;;1.10;;
1400;SDS011;46518;48.842;8.926;2023-05-10T21:48:25;1.27;;;1.17;;
1400;SDS011;46518;48.842;8.926;2023-05-10T21:50:53;2.20;;;1.00;;
1400;SDS011;46518;48.842;8.926;2023-05-10T21:53:22;1.10;;;1.00;;
1400;SDS011;46518;48.842;8.926;2023-05-10T21:55:51;1.55;;;1.10;;
1400;SDS011;46518;48.842;8.926;2023-05-10T21:58:20;1.20;;;1.00;;
1400;SDS011;46518;48.842;8.926;2023-05-10T22:00:49;1.33;;;1.10;;
1400;SDS011;46518;48.842;8.926;2023-05-10T22:03:17;1.25;;;1.15;;
1400;SDS011;46518;48.842;8.926;2023-05-10T22:05:46;1.08;;;0.98;;
1400;SDS011;46518;48.842;8.926;2023-05-10T22:08:14;1.25;;;1.15;;
1400;SDS011;46518;48.842;8.926;2023-05-10T22:10:42;1.25;;;1.15;;
1400;SDS011;46518;48.842;8.926;2023-05-10T22:13:12;2.05;;;1.30;;
1400;SDS011;46518;48.842;8.926;2023-05-10T22:15:40;4.30;;;1.38;;
1400;SDS011;46518;48.842;8.926;2023-05-10T22:18:09;3.00;;;1.05;;
1400;SDS011;46518;48.842;8.926;2023-05-10T22:20:38;1.13;;;1.02;;
1400;SDS011;46518;48.842;8.926;2023-05-10T22:23:06;1.25;;;1.15;;
1400;SDS011;46518;48.842;8.926;2023-05-10T22:25:34;1.98;;;1.02;;
1400;SDS011;46518;48.842;8.926;2023-05-10T22:28:02;1.17;;;1.08;;
1400;SDS011;46518;48.842;8.926;2023-05-10T22:30:31;1.77;;;1.42;;
1400;SDS011;46518;48.842;8.926;2023-05-10T22:33:00;1.65;;;1.52;;
1400;SDS011;46518;48.842;8.926;2023-05-10T22:35:28;1.63;;;1.50;;
1400;SDS011;46518;48.842;8.926;2023-05-10T22:37:56;3.25;;;1.00;;
1400;SDS011;46518;48.842;8.926;2023-05-10T22:40:24;2.10;;;0.95;;
1400;SDS011;46518;48.842;8.926;2023-05-10T22:42:56;1.15;;;0.90;;
1400;SDS011;46518;48.842;8.926;2023-05-10T22:45:24;0.82;;;0.82;;
1400;SDS011;46518;48.842;8.926;2023-05-10T22:47:54;1.00;;;1.00;;
1400;SDS011;46518;48.842;8.926;2023-05-10T22:50:25;2.65;;;1.20;;
1400;SDS011;46518;48.842;8.926;2023-05-10T22:52:53;0.90;;;0.90;;
1400;SDS011;46518;48.842;8.926;2023-05-10T22:55:21;1.00;;;1.00;;
1400;SDS011;46518;48.842;8.926;2023-05-10T22:57:50;1.30;;;1.20;;
1400;SDS011;46518;48.842;8.926;2023-05-10T23:00:18;1.17;;;1.08;;
1400;SDS011;46518;48.842;8.926;2023-05-10T23:02:46;2.05;;;1.45;;
1400;SDS011;46518;48.842;8.926;2023-05-10T23:05:16;1.15;;;1.05;;
1400;SDS011;46518;48.842;8.926;2023-05-10T23:07:45;0.90;;;0.90;;
1400;SDS011;46518;48.842;8.926;2023-05-10T23:10:18;5.03;;;1.20;;
1400;SDS011;46518;48.842;8.926;2023-05-10T23:12:46;1.05;;;0.90;;
1400;SDS011;46518;48.842;8.926;2023-05-10T23:15:15;1.77;;;1.17;;
1400;SDS011;46518;48.842;8.926;2023-05-10T23:17:43;1.40;;;1.10;;
1400;SDS011;46518;48.842;8.926;2023-05-10T23:20:11;0.93;;;0.80;;
1400;SDS011;46518;48.842;8.926;2023-05-10T23:22:41;1.35;;;1.08;;
1400;SDS011;46518;48.842;8.926;2023-05-10T23:25:09;1.15;;;1.05;;
1400;SDS011;46518;48.842;8.926;2023-05-10T23:27:37;1.00;;;0.90;;
1400;SDS011;46518;48.842;8.926;2023-05-10T23:30:06;1.10;;;1.00;;
1400;SDS011;46518;48.842;8.926;2023-05-10T23:32:35;1.00;;;0.90;;
1400;SDS011;46518;48.842;8.926;2023-05-10T23:35:03;1.30;;;1.20;;
1400;SDS011;46518;48.842;8.926;2023-05-10T23:37:32;1.17;;;0.90;;
1400;SDS011;46518;48.842;8.926;2023-05-10T23:40:03;0.80;;;0.80;;
1400;SDS011;46518;48.842;8.926;2023-05-10T23:42:32;1.02;;;0.90;;
1400;SDS011;46518;48.842;8.926;2023-05-10T23:45:00;2.58;;;1.05;;
1400;SDS011;46518;48.842;8.926;2023-05-10T23:47:28;1.08;;;0.80;;
1400;SDS011;46518;48.842;8.926;2023-05-10T23:49:58;1.10;;;1.00;;
1400;SDS011;46518;48.842;8.926;2023-05-10T23:52:26;1.42;;;1.30;;
1400;SDS011;46518;48.842;8.926;2023-05-10T23:54:55;1.83;;;1.35;;
1400;SDS011;46518;48.842;8.926;2023-05-10T23:57:24;1.00;;;1.00;;
1400;SDS011;46518;48.842;8.926;2023-05-10T23:59:53;2.42;;;0.90;;
